createdAt,value
2022-12-18T00:00:11.009Z,21.73
2022-12-18T00:02:39.713Z,20.73
2022-12-18T00:05:10.697Z,19.75
2022-12-18T00:07:40.619Z,19.70
2022-12-18T00:10:10.176Z,21.10
2022-12-18T00:12:38.853Z,20.60
2022-12-18T00:15:08.340Z,18.00
2022-12-18T00:17:36.950Z,20.38
2022-12-18T00:20:06.158Z,20.45
2022-12-18T00:22:34.837Z,19.52
2022-12-18T00:25:04.963Z,18.70
2022-12-18T00:27:33.580Z,21.25
2022-12-18T00:30:02.142Z,20.13
2022-12-18T00:32:30.705Z,21.45
2022-12-18T00:34:59.315Z,21.58
2022-12-18T00:37:27.887Z,21.52
2022-12-18T00:39:56.571Z,24.67
2022-12-18T00:42:44.075Z,20.15
2022-12-18T00:45:13.369Z,23.38
2022-12-18T00:47:42.228Z,21.30
2022-12-18T00:50:12.289Z,22.40
2022-12-18T00:52:40.853Z,21.13
2022-12-18T00:55:09.915Z,20.33
2022-12-18T00:57:39.800Z,20.77
2022-12-18T01:00:10.882Z,20.25
2022-12-18T01:02:39.612Z,20.15
2022-12-18T01:05:09.164Z,19.90
2022-12-18T01:07:38.290Z,17.33
2022-12-18T01:10:07.616Z,17.33
2022-12-18T01:12:36.218Z,18.38
2022-12-18T01:15:07.115Z,16.35
2022-12-18T01:17:35.704Z,17.13
2022-12-18T01:20:04.885Z,17.08
2022-12-18T01:22:33.444Z,17.40
2022-12-18T01:25:02.015Z,16.10
2022-12-18T01:27:30.579Z,17.58
2022-12-18T01:29:59.154Z,18.58
2022-12-18T01:32:31.326Z,15.90
2022-12-18T01:35:00.005Z,16.33
2022-12-18T01:37:28.590Z,17.73
2022-12-18T01:39:57.189Z,17.13
2022-12-18T01:42:26.531Z,16.38
2022-12-18T01:45:10.812Z,18.48
2022-12-18T01:47:42.291Z,16.52
2022-12-18T01:50:12.725Z,16.33
2022-12-18T01:52:41.302Z,15.07
2022-12-18T01:55:10.622Z,16.13
2022-12-18T01:57:39.336Z,15.38
2022-12-18T02:00:09.682Z,15.45
2022-12-18T02:02:38.500Z,15.85
2022-12-18T02:05:09.483Z,17.05
2022-12-18T02:07:44.932Z,16.33
2022-12-18T02:10:17.057Z,17.08
2022-12-18T02:12:47.436Z,14.95
2022-12-18T02:15:18.214Z,17.05
2022-12-18T02:17:49.348Z,15.32
2022-12-18T02:20:22.164Z,13.52
2022-12-18T02:22:59.593Z,12.40
2022-12-18T02:25:38.379Z,13.55
2022-12-18T02:28:09.829Z,13.27
2022-12-18T02:30:38.507Z,12.95
2022-12-18T02:33:09.055Z,15.15
2022-12-18T02:35:37.670Z,13.43
2022-12-18T02:38:06.330Z,13.23
2022-12-18T02:40:34.935Z,13.45
2022-12-18T02:43:10.317Z,14.10
2022-12-18T02:45:39.327Z,14.13
2022-12-18T02:48:08.100Z,14.43
2022-12-18T02:50:38.004Z,14.98
2022-12-18T02:53:12.479Z,14.00
2022-12-18T02:55:49.277Z,13.68
2022-12-18T02:58:20.143Z,13.60
2022-12-18T03:00:53.120Z,14.57
2022-12-18T03:03:24.603Z,14.65
2022-12-18T03:05:54.393Z,14.85
2022-12-18T03:08:24.001Z,14.40
2022-12-18T03:10:55.497Z,14.77
2022-12-18T03:13:35.736Z,14.85
2022-12-18T03:16:04.797Z,13.80
2022-12-18T03:18:35.317Z,15.75
2022-12-18T03:21:06.784Z,13.90
2022-12-18T03:23:39.273Z,13.65
2022-12-18T03:26:09.361Z,14.15
2022-12-18T03:28:40.732Z,14.60
2022-12-18T03:31:10.272Z,14.60
2022-12-18T03:33:41.649Z,13.38
2022-12-18T03:36:10.696Z,13.50
2022-12-18T03:38:39.281Z,14.15
2022-12-18T03:41:11.988Z,15.70
2022-12-18T03:43:45.112Z,14.27
2022-12-18T03:46:16.876Z,14.43
2022-12-18T03:48:47.117Z,15.30
2022-12-18T03:51:17.993Z,13.98
2022-12-18T03:53:48.351Z,12.77
2022-12-18T03:56:17.185Z,13.20
2022-12-18T03:58:47.145Z,12.40
2022-12-18T04:01:17.274Z,13.23
2022-12-18T04:03:46.240Z,13.65
2022-12-18T04:06:15.009Z,11.90
2022-12-18T04:08:43.633Z,12.98
2022-12-18T04:11:12.229Z,13.85
2022-12-18T04:13:41.578Z,13.85
2022-12-18T04:16:12.479Z,14.35
2022-12-18T04:18:41.076Z,12.00
2022-12-18T04:21:09.780Z,12.82
2022-12-18T04:23:38.606Z,13.10
2022-12-18T04:26:07.624Z,12.63
2022-12-18T04:28:36.167Z,14.88
2022-12-18T04:31:04.781Z,14.95
2022-12-18T04:33:34.805Z,12.50
2022-12-18T04:36:03.331Z,14.98
2022-12-18T04:38:31.971Z,13.57
2022-12-18T04:41:00.548Z,14.27
2022-12-18T04:43:29.148Z,15.18
2022-12-18T04:46:04.699Z,14.88
2022-12-18T04:48:34.768Z,14.73
2022-12-18T04:51:03.502Z,16.73
2022-12-18T04:53:32.084Z,14.20
2022-12-18T04:56:07.897Z,15.77
2022-12-18T04:58:36.585Z,16.45
2022-12-18T05:01:05.127Z,15.60
2022-12-18T05:03:35.105Z,16.20
2022-12-18T05:06:03.768Z,16.50
2022-12-18T05:08:32.443Z,17.25
2022-12-18T05:11:02.030Z,16.42
2022-12-18T05:13:30.624Z,18.15
2022-12-18T05:15:59.195Z,19.67
2022-12-18T05:18:28.222Z,18.25
2022-12-18T05:20:58.184Z,17.02
2022-12-18T05:23:27.060Z,16.95
2022-12-18T05:25:55.855Z,16.30
2022-12-18T05:28:24.980Z,17.08
2022-12-18T05:30:53.975Z,17.13
2022-12-18T05:33:22.775Z,16.20
2022-12-18T05:35:53.255Z,17.08
2022-12-18T05:38:23.409Z,16.80
2022-12-18T05:40:52.045Z,17.95
2022-12-18T05:43:21.638Z,16.13
2022-12-18T05:45:50.425Z,18.65
2022-12-18T05:48:19.113Z,18.02
2022-12-18T05:50:48.794Z,17.90
2022-12-18T05:53:18.292Z,18.55
2022-12-18T05:55:48.322Z,18.85
2022-12-18T05:58:16.942Z,15.75
2022-12-18T06:00:46.200Z,16.10
2022-12-18T06:03:15.482Z,16.60
2022-12-18T06:05:45.096Z,17.63
2022-12-18T06:08:13.949Z,17.38
2022-12-18T06:10:42.578Z,18.70
2022-12-18T06:13:12.536Z,17.77
2022-12-18T06:15:41.224Z,16.38
2022-12-18T06:18:09.974Z,15.60
2022-12-18T06:20:41.400Z,17.88
2022-12-18T06:23:10.444Z,18.75
2022-12-18T06:25:40.735Z,15.65
2022-12-18T06:28:09.361Z,16.52
2022-12-18T06:30:39.320Z,16.95
2022-12-18T06:33:07.954Z,16.48
2022-12-18T06:35:36.587Z,18.17
2022-12-18T06:38:05.577Z,16.50
2022-12-18T06:40:34.139Z,18.63
2022-12-18T06:43:02.756Z,16.65
2022-12-18T06:45:31.473Z,16.83
2022-12-18T06:48:01.772Z,19.67
2022-12-18T06:50:30.484Z,16.30
2022-12-18T06:52:59.319Z,17.90
2022-12-18T06:55:27.954Z,17.25
2022-12-18T06:57:56.569Z,15.77
2022-12-18T07:00:25.185Z,16.92
2022-12-18T07:02:53.895Z,19.30
2022-12-18T07:05:23.920Z,16.23
2022-12-18T07:07:52.513Z,16.25
2022-12-18T07:10:21.130Z,18.58
2022-12-18T07:12:49.734Z,16.98
2022-12-18T07:15:18.541Z,15.93
2022-12-18T07:17:47.100Z,17.35
2022-12-18T07:20:15.669Z,18.05
2022-12-18T07:22:46.160Z,15.40
2022-12-18T07:25:15.013Z,15.05
2022-12-18T07:27:43.537Z,15.48
2022-12-18T07:30:13.353Z,13.73
2022-12-18T07:32:41.962Z,14.85
2022-12-18T07:35:10.671Z,15.15
2022-12-18T07:37:39.363Z,16.45
2022-12-18T07:40:11.005Z,15.98
2022-12-18T07:42:39.736Z,17.00
2022-12-18T07:45:10.016Z,15.00
2022-12-18T07:47:38.623Z,13.90
2022-12-18T07:50:08.097Z,15.70
2022-12-18T07:52:36.679Z,15.75
2022-12-18T07:55:05.682Z,16.60
2022-12-18T07:57:57.617Z,15.80
2022-12-18T08:00:26.114Z,16.42
2022-12-18T08:02:54.800Z,14.48
2022-12-18T08:05:23.392Z,15.70
2022-12-18T08:07:51.970Z,16.05
2022-12-18T08:10:20.626Z,15.73
2022-12-18T08:12:51.849Z,15.43
2022-12-18T08:15:20.425Z,15.48
2022-12-18T08:17:49.079Z,15.60
2022-12-18T08:20:19.201Z,14.98
2022-12-18T08:22:47.847Z,15.82
2022-12-18T08:25:16.530Z,15.23
2022-12-18T08:27:45.092Z,14.70
2022-12-18T08:30:15.879Z,17.08
2022-12-18T08:32:44.549Z,14.00
2022-12-18T08:35:14.781Z,16.13
2022-12-18T08:37:45.062Z,15.32
2022-12-18T08:40:13.991Z,16.80
2022-12-18T08:43:00.498Z,16.80
2022-12-18T08:45:30.499Z,18.85
2022-12-18T08:47:59.191Z,17.33
2022-12-18T08:50:27.919Z,16.98
2022-12-18T08:52:56.468Z,16.05
2022-12-18T08:55:25.961Z,15.95
2022-12-18T08:57:54.635Z,17.02
2022-12-18T09:00:23.451Z,15.52
2022-12-18T09:02:53.547Z,16.38
2022-12-18T09:05:22.230Z,18.52
2022-12-18T09:07:51.055Z,15.63
2022-12-18T09:10:19.686Z,16.35
2022-12-18T09:12:49.408Z,17.15
2022-12-18T09:15:18.218Z,17.88
2022-12-18T09:17:46.774Z,15.55
2022-12-18T09:20:16.895Z,16.27
2022-12-18T09:22:46.732Z,16.50
2022-12-18T09:25:15.406Z,15.52
2022-12-18T09:27:43.980Z,16.98
2022-12-18T09:30:13.344Z,14.20
2022-12-18T09:32:41.865Z,15.90
2022-12-18T09:35:10.599Z,16.90
2022-12-18T09:37:40.591Z,15.00
2022-12-18T09:40:14.412Z,17.92
2022-12-18T09:42:43.011Z,15.77
2022-12-18T09:45:13.899Z,16.98
2022-12-18T09:47:42.496Z,15.98
2022-12-18T09:50:21.719Z,17.42
2022-12-18T09:52:53.725Z,16.50
2022-12-18T09:55:24.825Z,16.83
2022-12-18T09:57:55.357Z,17.58
2022-12-18T10:00:24.835Z,17.02
2022-12-18T10:02:54.082Z,19.70
2022-12-18T10:05:27.537Z,20.30
2022-12-18T10:08:01.063Z,18.83
2022-12-18T10:10:35.397Z,20.58
2022-12-18T10:13:09.566Z,20.58
2022-12-18T10:15:41.415Z,20.27
2022-12-18T10:18:22.026Z,19.88
2022-12-18T10:20:51.886Z,20.30
2022-12-18T10:23:24.537Z,21.27
2022-12-18T10:25:56.296Z,18.67
2022-12-18T10:28:24.970Z,22.02
2022-12-18T10:30:53.666Z,21.50
2022-12-18T10:33:23.095Z,21.30
2022-12-18T10:35:55.737Z,18.40
2022-12-18T10:38:27.365Z,16.80
2022-12-18T10:40:57.217Z,15.50
2022-12-18T10:43:27.364Z,16.70
2022-12-18T10:46:04.189Z,15.70
2022-12-18T10:48:33.143Z,14.63
2022-12-18T10:51:17.111Z,16.60
2022-12-18T10:53:49.813Z,17.05
2022-12-18T10:56:21.298Z,17.70
2022-12-18T10:58:58.651Z,16.27
2022-12-18T11:01:27.515Z,15.00
2022-12-18T11:04:04.084Z,15.63
2022-12-18T11:06:54.109Z,15.48
2022-12-18T11:09:24.664Z,15.02
2022-12-18T11:11:54.552Z,14.77
2022-12-18T11:14:25.089Z,16.65
2022-12-18T11:19:42.922Z,15.90
2022-12-18T11:22:21.243Z,14.63
2022-12-18T11:25:22.874Z,13.13
2022-12-18T11:27:48.945Z,13.80
2022-12-18T11:30:24.311Z,14.25
2022-12-18T11:32:53.307Z,15.25
2022-12-18T11:35:34.460Z,15.43
2022-12-18T11:38:06.955Z,15.27
2022-12-18T11:40:41.266Z,14.48
2022-12-18T11:43:12.345Z,14.25
2022-12-18T11:45:43.530Z,14.05
2022-12-18T11:48:16.269Z,14.15
2022-12-18T11:50:48.825Z,13.75
2022-12-18T11:53:17.440Z,12.02
2022-12-18T11:55:52.604Z,12.43
2022-12-18T11:58:31.371Z,12.98
2022-12-18T12:01:11.648Z,14.13
2022-12-18T12:03:51.584Z,13.85
2022-12-18T12:06:22.407Z,14.30
2022-12-18T12:08:59.962Z,14.50
2022-12-18T12:11:34.887Z,13.80
2022-12-18T12:14:14.845Z,13.05
2022-12-18T12:16:47.095Z,13.95
2022-12-18T12:19:23.752Z,14.13
2022-12-18T12:21:55.134Z,13.93
2022-12-18T12:24:30.685Z,14.90
2022-12-18T12:27:04.512Z,14.10
2022-12-18T12:29:40.129Z,13.35
2022-12-18T12:32:14.509Z,15.02
2022-12-18T12:34:47.442Z,15.75
2022-12-18T12:37:22.858Z,14.23
2022-12-18T12:39:51.460Z,13.48
2022-12-18T12:42:46.167Z,13.85
2022-12-18T12:45:17.893Z,13.70
2022-12-18T12:47:46.631Z,14.63
2022-12-18T12:50:17.410Z,13.25
2022-12-18T12:52:48.953Z,13.88
2022-12-18T12:55:19.553Z,12.15
2022-12-18T12:57:57.641Z,14.40
2022-12-18T13:00:27.170Z,14.02
2022-12-18T13:02:58.850Z,12.90
2022-12-18T13:05:30.384Z,13.35
2022-12-18T13:08:00.000Z,13.43
2022-12-18T13:10:36.227Z,13.82
2022-12-18T13:13:07.274Z,16.38
2022-12-18T13:15:41.100Z,16.88
2022-12-18T13:18:20.768Z,14.10
2022-12-18T13:20:55.373Z,24.00
2022-12-18T13:23:32.060Z,19.70
2022-12-18T13:26:01.277Z,20.25
2022-12-18T13:28:54.206Z,29.50
2022-12-18T13:32:00.544Z,16.85
2022-12-18T13:34:30.912Z,17.45
2022-12-18T13:37:31.700Z,20.80
2022-12-18T13:40:00.301Z,17.80
2022-12-18T13:43:00.371Z,19.02
2022-12-18T13:45:41.601Z,17.27
2022-12-18T13:48:19.289Z,16.40
2022-12-18T13:50:54.485Z,16.77
2022-12-18T13:53:25.574Z,15.43
2022-12-18T13:55:54.384Z,13.95
2022-12-18T13:58:23.640Z,14.77
2022-12-18T14:00:53.801Z,15.18
2022-12-18T14:03:24.146Z,13.30
2022-12-18T14:06:03.503Z,16.38
2022-12-18T14:08:37.243Z,16.55
2022-12-18T14:11:06.652Z,14.70
2022-12-18T14:13:39.948Z,15.30
2022-12-18T14:16:10.080Z,15.88
2022-12-18T14:18:46.619Z,14.82
2022-12-18T14:21:23.518Z,14.20
2022-12-18T14:23:59.527Z,14.30
2022-12-18T14:26:30.101Z,13.80
2022-12-18T14:28:59.078Z,13.63
2022-12-18T14:31:29.867Z,15.15
2022-12-18T14:33:58.429Z,12.73
2022-12-18T14:36:27.762Z,13.18
2022-12-18T14:38:56.546Z,12.02
2022-12-18T14:41:24.961Z,13.88
2022-12-18T14:43:55.716Z,14.73
2022-12-18T14:46:35.505Z,14.35
2022-12-18T14:49:05.594Z,14.07
2022-12-18T14:51:34.913Z,13.15
2022-12-18T14:54:04.241Z,14.23
2022-12-18T14:56:34.257Z,14.02
2022-12-18T14:59:04.362Z,13.70
2022-12-18T15:01:36.116Z,15.30
2022-12-18T15:04:05.188Z,14.45
2022-12-18T15:06:36.357Z,14.30
2022-12-18T15:09:06.589Z,16.75
2022-12-18T15:11:46.972Z,22.70
2022-12-18T15:14:31.211Z,14.82
2022-12-18T15:17:01.268Z,17.25
2022-12-18T15:19:36.168Z,22.42
2022-12-18T15:22:06.519Z,13.77
2022-12-18T15:24:35.289Z,14.40
2022-12-18T15:27:03.605Z,12.98
2022-12-18T15:29:31.918Z,13.15
2022-12-18T15:32:06.406Z,14.30
2022-12-18T15:34:35.066Z,12.73
2022-12-18T15:37:03.383Z,13.15
2022-12-18T15:39:31.697Z,13.20
2022-12-18T15:42:17.459Z,13.00
2022-12-18T15:44:46.638Z,12.18
2022-12-18T15:47:16.357Z,13.25
2022-12-18T15:49:44.643Z,13.55
2022-12-18T15:52:14.058Z,13.93
2022-12-18T15:54:59.769Z,11.82
2022-12-18T15:57:28.142Z,13.60
2022-12-18T15:59:59.072Z,13.77
2022-12-18T16:02:30.023Z,14.27
2022-12-18T16:04:59.679Z,16.95
2022-12-18T16:07:30.582Z,14.93
2022-12-18T16:10:00.386Z,15.50
2022-12-18T16:12:30.956Z,14.57
2022-12-18T16:14:59.237Z,14.43
2022-12-18T16:17:28.902Z,13.20
2022-12-18T16:19:57.209Z,13.65
2022-12-18T16:22:27.635Z,12.90
2022-12-18T16:24:57.018Z,13.32
2022-12-18T16:27:25.646Z,13.73
2022-12-18T16:29:54.011Z,14.70
2022-12-18T16:32:23.714Z,12.85
2022-12-18T16:34:54.478Z,15.68
2022-12-18T16:37:22.746Z,13.05
2022-12-18T16:39:51.171Z,13.40
2022-12-18T16:42:21.088Z,14.18
2022-12-18T16:44:49.981Z,13.32
2022-12-18T16:47:18.572Z,14.40
2022-12-18T16:49:46.910Z,14.15
2022-12-18T16:52:16.575Z,18.10
2022-12-18T16:54:46.568Z,38.35
2022-12-18T16:57:16.789Z,16.38
2022-12-18T16:59:45.094Z,15.00
2022-12-18T17:02:15.637Z,37.95
2022-12-18T17:04:45.560Z,23.83
2022-12-18T17:07:14.057Z,15.25
2022-12-18T17:09:43.790Z,16.63
2022-12-18T17:12:12.051Z,23.90
2022-12-18T17:14:40.533Z,27.33
2022-12-18T17:17:24.367Z,31.60
2022-12-18T17:19:53.216Z,19.83
2022-12-18T17:22:21.545Z,15.55
2022-12-18T17:24:51.231Z,16.35
2022-12-18T17:27:19.518Z,15.90
2022-12-18T17:29:49.035Z,16.60
2022-12-18T17:32:17.795Z,15.50
2022-12-18T17:34:46.573Z,16.65
2022-12-18T17:37:15.521Z,16.20
2022-12-18T17:39:43.839Z,16.58
2022-12-18T17:42:15.473Z,16.65
2022-12-18T17:44:44.759Z,17.33
2022-12-18T17:47:13.297Z,18.00
2022-12-18T17:49:41.922Z,17.30
2022-12-18T17:52:10.275Z,17.50
2022-12-18T17:54:41.349Z,17.50
2022-12-18T17:57:10.278Z,15.95
2022-12-18T17:59:39.936Z,19.58
2022-12-18T18:02:08.541Z,25.75
2022-12-18T18:04:36.947Z,19.88
2022-12-18T18:07:05.322Z,19.27
2022-12-18T18:09:33.800Z,20.83
2022-12-18T18:12:19.367Z,21.92
2022-12-18T18:14:49.189Z,22.42
2022-12-18T18:17:17.833Z,19.20
2022-12-18T18:19:49.486Z,20.38
2022-12-18T18:22:18.743Z,19.23
2022-12-18T18:24:47.320Z,22.63
2022-12-18T18:27:15.861Z,23.20
2022-12-18T18:29:44.270Z,29.35
2022-12-18T18:32:13.982Z,19.77
2022-12-18T18:34:42.368Z,18.10
2022-12-18T18:37:11.074Z,20.92
2022-12-18T18:39:39.662Z,21.27
2022-12-18T18:42:08.214Z,20.40
2022-12-18T18:44:36.598Z,37.00
2022-12-18T18:47:05.608Z,29.40
2022-12-18T18:49:39.094Z,24.75
2022-12-18T18:52:08.265Z,26.30
2022-12-18T18:54:36.631Z,18.92
2022-12-18T18:57:20.326Z,23.25
2022-12-18T18:59:49.527Z,18.65
2022-12-18T19:02:18.258Z,18.05
2022-12-18T19:04:48.072Z,18.48
2022-12-18T19:07:18.520Z,20.80
2022-12-18T19:10:05.069Z,23.17
2022-12-18T19:12:53.562Z,20.30
2022-12-18T19:15:21.961Z,27.75
2022-12-18T19:17:50.444Z,22.75
2022-12-18T19:20:20.492Z,21.13
2022-12-18T19:22:54.910Z,18.35
2022-12-18T19:25:37.574Z,19.85
2022-12-18T19:28:21.232Z,18.30
2022-12-18T19:30:58.888Z,18.25
2022-12-18T19:33:44.315Z,27.30
2022-12-18T19:36:16.880Z,19.17
2022-12-18T19:38:46.146Z,18.75
2022-12-18T19:41:15.423Z,23.85
2022-12-18T19:43:44.482Z,18.38
2022-12-18T19:46:14.409Z,19.88
2022-12-18T19:48:43.830Z,21.30
2022-12-18T19:51:16.022Z,21.38
2022-12-18T19:53:44.668Z,19.77
2022-12-18T19:56:14.208Z,19.85
2022-12-18T19:58:43.265Z,19.02
2022-12-18T20:01:12.479Z,17.45
2022-12-18T20:03:42.923Z,19.10
2022-12-18T20:06:19.201Z,18.45
2022-12-18T20:08:47.837Z,18.30
2022-12-18T20:11:16.508Z,18.70
2022-12-18T20:13:45.241Z,18.98
2022-12-18T20:16:13.991Z,18.95
2022-12-18T20:18:42.613Z,18.48
2022-12-18T20:21:13.987Z,18.73
2022-12-18T20:23:44.642Z,17.75
2022-12-18T20:26:13.678Z,18.52
2022-12-18T20:28:42.405Z,17.65
2022-12-18T20:31:13.767Z,18.10
2022-12-18T20:33:43.319Z,18.10
2022-12-18T20:36:21.131Z,19.30
2022-12-18T20:38:52.871Z,18.80
2022-12-18T20:41:25.973Z,19.27
2022-12-18T20:43:56.308Z,17.88
2022-12-18T20:46:24.956Z,19.88
2022-12-18T20:49:00.975Z,19.10
2022-12-18T20:51:30.610Z,18.58
2022-12-18T20:54:00.697Z,19.90
2022-12-18T20:56:30.694Z,19.92
2022-12-18T20:58:59.357Z,18.67
2022-12-18T21:01:28.970Z,18.63
2022-12-18T21:03:57.578Z,20.05
2022-12-18T21:06:26.484Z,19.60
2022-12-18T21:08:55.059Z,19.73
2022-12-18T21:11:49.507Z,18.80
2022-12-18T21:14:19.150Z,19.75
2022-12-18T21:16:47.796Z,18.05
2022-12-18T21:19:17.897Z,16.67
2022-12-18T21:21:47.313Z,17.95
2022-12-18T21:24:16.108Z,18.35
2022-12-18T21:26:46.443Z,19.10
2022-12-18T21:29:16.216Z,19.75
2022-12-18T21:31:45.390Z,19.00
2022-12-18T21:34:16.653Z,20.17
2022-12-18T21:36:45.251Z,19.10
2022-12-18T21:39:14.786Z,17.77
2022-12-18T21:42:00.735Z,21.48
2022-12-18T21:44:30.685Z,23.13
2022-12-18T21:47:12.263Z,18.50
2022-12-18T21:49:51.528Z,18.73
2022-12-18T21:52:20.120Z,19.52
2022-12-18T21:54:52.461Z,19.48
2022-12-18T21:57:21.092Z,18.23
2022-12-18T21:59:51.316Z,17.70
2022-12-18T22:02:21.083Z,18.58
2022-12-18T22:04:49.988Z,16.27
2022-12-18T22:07:18.976Z,17.50
2022-12-18T22:09:48.341Z,15.75
2022-12-18T22:12:35.205Z,17.20
2022-12-18T22:15:06.913Z,17.50
2022-12-18T22:17:35.442Z,16.30
2022-12-18T22:20:04.897Z,16.52
2022-12-18T22:22:33.417Z,17.55
2022-12-18T22:25:02.396Z,16.48
2022-12-18T22:27:30.935Z,16.15
2022-12-18T22:30:04.172Z,15.48
2022-12-18T22:32:34.215Z,16.90
2022-12-18T22:35:08.026Z,16.60
2022-12-18T22:37:37.931Z,18.25
2022-12-18T22:40:08.560Z,16.73
2022-12-18T22:42:37.176Z,17.13
2022-12-18T22:45:06.383Z,17.80
2022-12-18T22:47:36.344Z,16.42
2022-12-18T22:50:05.917Z,18.60
2022-12-18T22:52:34.471Z,16.02
2022-12-18T22:55:03.122Z,15.45
2022-12-18T22:57:31.854Z,17.38
2022-12-18T23:00:00.422Z,15.93
2022-12-18T23:02:30.413Z,16.70
2022-12-18T23:05:00.499Z,17.00
2022-12-18T23:07:29.194Z,15.60
2022-12-18T23:10:00.857Z,16.33
2022-12-18T23:12:29.915Z,16.10
2022-12-18T23:14:58.669Z,15.82
2022-12-18T23:17:27.190Z,15.20
2022-12-18T23:19:55.911Z,17.25
2022-12-18T23:22:25.855Z,14.85
2022-12-18T23:24:54.428Z,15.77
2022-12-18T23:27:22.982Z,14.88
2022-12-18T23:29:51.536Z,15.88
2022-12-18T23:32:21.922Z,15.32
2022-12-18T23:34:50.500Z,15.82
2022-12-18T23:37:49.976Z,14.48
2022-12-18T23:40:10.623Z,14.70
2022-12-18T23:42:39.399Z,16.95
2022-12-18T23:45:17.700Z,14.40
2022-12-18T23:47:50.473Z,14.90
2022-12-18T23:50:22.104Z,14.30
2022-12-18T23:53:04.605Z,15.50
2022-12-18T23:55:38.438Z,15.18
2022-12-18T23:58:07.048Z,14.27
